Time;durP1;ratioP1;P1;durP2;ratioP2;P2;SDS_P1;SDS_P2;PMS_P1;PMS_P2;Temp;Humidity;BMP_temperature;BMP_pressure;BME280_temperature;BME280_humidity;BME280_pressure;Samples;Min_cycle;Max_cycle;Signal;HPM_P1;HPM_P2
2022/03/21 00:01:21;;;;;;;64.50;39.38;;;4.70;99.90;;;;;;6241604;23;20440;-81
2022/03/21 00:03:47;;;;;;;67.03;39.83;;;5.10;99.90;;;;;;6241496;23;20052;-81
2022/03/21 00:06:13;;;;;;;69.03;41.92;;;4.80;99.90;;;;;;6241058;23;20082;-81
2022/03/21 00:08:39;;;;;;;66.35;41.40;;;5.60;99.90;;;;;;6242989;23;20020;-81
2022/03/21 00:11:06;;;;;;;63.72;40.50;;;4.80;99.90;;;;;;6242639;23;20028;-80
2022/03/21 00:13:31;;;;;;;61.80;38.88;;;5.60;99.90;;;;;;6242958;23;20599;-81
2022/03/21 00:15:57;;;;;;;63.15;39.80;;;5.70;99.90;;;;;;6242858;23;20047;-81
2022/03/21 00:18:25;;;;;;;63.30;40.38;;;4.80;99.90;;;;;;6243228;23;20016;-80
2022/03/21 00:20:53;;;;;;;58.63;38.53;;;4.80;99.90;;;;;;6243327;23;20032;-82
2022/03/21 00:23:20;;;;;;;60.63;39.42;;;4.80;99.90;;;;;;6243312;23;20026;-81
2022/03/21 00:25:46;;;;;;;62.22;40.17;;;4.80;99.90;;;;;;6243050;23;20019;-82
2022/03/21 00:28:12;;;;;;;62.58;40.42;;;4.80;99.90;;;;;;6243080;23;20019;-82
2022/03/21 00:30:43;;;;;;;68.05;42.70;;;4.80;99.90;;;;;;6216091;23;20520;-81
2022/03/21 00:33:09;;;;;;;65.65;40.70;;;4.70;99.90;;;;;;6190337;23;20020;-82
2022/03/21 00:35:35;;;;;;;67.45;40.53;;;5.30;99.90;;;;;;6241198;23;20015;-81
2022/03/21 00:38:01;;;;;;;64.53;41.58;;;4.70;99.90;;;;;;6243063;23;20513;-81
2022/03/21 00:40:29;;;;;;;62.38;40.78;;;5.20;99.90;;;;;;6216003;23;20024;-81
2022/03/21 00:42:56;;;;;;;65.15;40.60;;;5.60;99.90;;;;;;6215729;23;20035;-82
2022/03/21 00:45:24;;;;;;;62.20;41.35;;;5.50;99.90;;;;;;6242824;23;20453;-83
2022/03/21 00:47:52;;;;;;;60.97;41.03;;;4.60;99.90;;;;;;6216471;23;20349;-82
2022/03/21 00:50:20;;;;;;;67.55;41.55;;;4.60;99.90;;;;;;6243079;23;20099;-82
2022/03/21 00:52:50;;;;;;;62.50;39.53;;;4.60;99.90;;;;;;6215596;23;20051;-82
2022/03/21 00:55:17;;;;;;;61.90;41.17;;;5.40;99.90;;;;;;6242945;23;20087;-79
2022/03/21 00:57:43;;;;;;;69.20;42.40;;;5.10;99.90;;;;;;6242523;23;20013;-79
2022/03/21 01:00:12;;;;;;;65.32;40.88;;;4.60;99.90;;;;;;6215779;23;20027;-79
2022/03/21 01:02:39;;;;;;;68.38;41.25;;;4.60;99.90;;;;;;6243013;23;20022;-79
2022/03/21 01:05:06;;;;;;;66.95;41.20;;;4.90;99.90;;;;;;6243202;23;20008;-81
2022/03/21 01:07:33;;;;;;;68.60;40.47;;;4.50;99.90;;;;;;6242928;23;20030;-79
2022/03/21 01:09:59;;;;;;;63.78;40.45;;;4.50;99.90;;;;;;6243097;23;20016;-81
2022/03/21 01:12:25;;;;;;;62.53;39.58;;;5.20;99.90;;;;;;6242332;23;20082;-79
2022/03/21 01:14:51;;;;;;;63.40;39.05;;;5.30;99.90;;;;;;6242733;23;20361;-79
2022/03/21 01:17:17;;;;;;;59.88;39.53;;;4.50;99.90;;;;;;6242781;23;20016;-79
2022/03/21 01:19:42;;;;;;;61.70;38.10;;;4.40;99.90;;;;;;6242529;23;20023;-79
2022/03/21 01:22:08;;;;;;;63.90;37.13;;;4.40;99.90;;;;;;6242716;23;20055;-81
2022/03/21 01:24:38;;;;;;;63.17;39.17;;;4.30;99.90;;;;;;6214782;23;20344;-78
2022/03/21 01:27:05;;;;;;;62.65;37.15;;;4.40;99.90;;;;;;6242092;23;20449;-79
2022/03/21 01:29:31;;;;;;;64.32;37.38;;;4.40;99.90;;;;;;6241958;23;20059;-79
2022/03/21 01:31:57;;;;;;;58.35;36.53;;;4.40;99.90;;;;;;6242125;23;20452;-80
2022/03/21 01:34:23;;;;;;;58.70;36.20;;;4.40;99.90;;;;;;6242464;23;20031;-79
2022/03/21 01:36:48;;;;;;;57.03;36.60;;;4.40;99.90;;;;;;6242508;23;20016;-79
2022/03/21 01:39:14;;;;;;;60.30;37.03;;;4.30;99.90;;;;;;6242533;23;20378;-81
2022/03/21 01:41:40;;;;;;;61.95;38.10;;;4.30;99.90;;;;;;6242703;23;20015;-79
2022/03/21 01:44:08;;;;;;;58.25;36.22;;;4.30;99.90;;;;;;6242039;23;20468;-78
2022/03/21 01:46:35;;;;;;;54.88;35.25;;;4.30;99.90;;;;;;6215101;23;20027;-78
2022/03/21 01:49:02;;;;;;;53.80;34.42;;;4.20;99.90;;;;;;6242119;23;20032;-77
2022/03/21 01:51:28;;;;;;;54.40;34.95;;;4.10;99.90;;;;;;6242181;23;20020;-79
2022/03/21 01:56:41;;;;;;;66.15;37.80;;;4.70;99.90;;;;;;6242482;23;20027;-79
2022/03/21 01:59:11;;;;;;;57.22;36.10;;;4.10;99.90;;;;;;6241939;23;20020;-79
2022/03/21 02:01:38;;;;;;;55.83;34.90;;;4.60;99.90;;;;;;6215252;23;20071;-81
2022/03/21 02:04:04;;;;;;;59.30;35.35;;;4.70;99.90;;;;;;6242426;23;20024;-80
2022/03/21 02:06:30;;;;;;;58.72;35.13;;;4.10;99.90;;;;;;6242651;23;20071;-80
2022/03/21 02:09:01;;;;;;;54.95;33.78;;;4.10;99.90;;;;;;6215013;23;20480;-81
2022/03/21 02:11:29;;;;;;;55.45;31.88;;;4.10;99.90;;;;;;6242312;23;20072;-79
2022/03/21 02:13:56;;;;;;;58.13;33.58;;;4.10;99.90;;;;;;6241560;23;20012;-79
2022/03/21 02:16:27;;;;;;;51.22;31.35;;;4.10;99.90;;;;;;6214772;23;20024;-79
2022/03/21 02:18:54;;;;;;;52.08;30.63;;;4.10;99.90;;;;;;6241873;23;20008;-79
2022/03/21 02:21:27;;;;;;;45.65;29.70;;;4.10;99.90;;;;;;6241975;23;20322;-80
2022/03/21 02:24:01;;;;;;;54.08;31.58;;;4.10;99.90;;;;;;6242067;23;20016;-79
2022/03/21 02:26:29;;;;;;;49.15;31.42;;;4.40;99.90;;;;;;6214867;23;20397;-79
2022/03/21 02:28:56;;;;;;;47.80;28.23;;;3.90;99.90;;;;;;6241964;23;20063;-79
2022/03/21 02:31:23;;;;;;;52.42;29.52;;;3.90;99.90;;;;;;6241266;23;20083;-79
2022/03/21 02:33:50;;;;;;;43.53;28.08;;;3.90;99.90;;;;;;6214182;23;20019;-79
2022/03/21 02:36:17;;;;;;;44.83;28.05;;;3.90;99.90;;;;;;6241728;23;20019;-80
2022/03/21 02:38:45;;;;;;;43.78;28.52;;;4.70;99.90;;;;;;6241995;23;20020;-79
2022/03/21 02:41:14;;;;;;;45.13;27.10;;;3.90;99.90;;;;;;6242153;23;20031;-79
2022/03/21 02:44:09;;;;;;;47.90;28.65;;;4.40;99.90;;;;;;6242065;23;20016;-78
2022/03/21 02:46:36;;;;;;;43.60;26.52;;;3.80;99.90;;;;;;6147718;23;20022;-79
2022/03/21 02:49:02;;;;;;;47.00;27.25;;;3.70;99.90;;;;;;6148168;23;20100;-79
2022/03/21 02:51:29;;;;;;;45.92;27.67;;;3.50;99.90;;;;;;6148324;23;20151;-78
2022/03/21 02:53:55;;;;;;;45.47;27.75;;;3.40;99.90;;;;;;6148281;23;20028;-80
2022/03/21 02:56:21;;;;;;;44.20;27.63;;;3.40;99.90;;;;;;6148212;23;20069;-79
2022/03/21 02:58:47;;;;;;;49.55;28.27;;;3.30;99.90;;;;;;6123556;23;20052;-80
2022/03/21 03:01:15;;;;;;;47.85;27.25;;;3.40;99.90;;;;;;6147664;23;20029;-77
2022/03/21 03:03:41;;;;;;;42.72;27.00;;;4.20;99.90;;;;;;6148347;23;20109;-78
2022/03/21 03:06:07;;;;;;;45.08;27.17;;;3.40;99.90;;;;;;6123648;23;20057;-79
2022/03/21 03:08:34;;;;;;;48.95;28.52;;;3.40;99.90;;;;;;6148090;23;20061;-79
2022/03/21 03:10:59;;;;;;;46.58;27.67;;;3.50;99.90;;;;;;6148239;23;20017;-78
2022/03/21 03:13:25;;;;;;;47.33;26.50;;;4.20;99.90;;;;;;6148179;23;20362;-79
2022/03/21 03:15:51;;;;;;;43.83;25.33;;;3.60;99.90;;;;;;6123052;23;20025;-78
2022/03/21 03:18:17;;;;;;;45.03;27.08;;;3.60;99.90;;;;;;6148028;23;20018;-79
2022/03/21 03:20:49;;;;;;;41.13;24.65;;;4.00;99.90;;;;;;6148461;23;20064;-78
2022/03/21 03:23:17;;;;;;;38.05;23.80;;;3.70;99.90;;;;;;6204910;23;20012;-78
2022/03/21 03:25:43;;;;;;;38.58;23.65;;;4.60;99.90;;;;;;6241267;23;20095;-77
2022/03/21 03:28:08;;;;;;;37.33;21.90;;;3.70;99.90;;;;;;6241363;23;20083;-78
2022/03/21 03:30:35;;;;;;;39.55;22.05;;;3.70;99.90;;;;;;6241540;23;20028;-78
2022/03/21 03:33:02;;;;;;;43.60;22.50;;;3.70;99.90;;;;;;6240932;23;20017;-78
2022/03/21 03:35:28;;;;;;;41.53;22.52;;;3.70;99.90;;;;;;6241759;23;20102;-79
2022/03/21 03:37:53;;;;;;;37.55;20.17;;;3.70;99.90;;;;;;6241203;23;20397;-80
2022/03/21 03:40:21;;;;;;;33.20;20.30;;;3.70;99.90;;;;;;6213558;23;20020;-78
2022/03/21 03:42:47;;;;;;;38.63;21.00;;;3.70;99.90;;;;;;6242545;23;20012;-79
2022/03/21 03:45:13;;;;;;;32.40;19.58;;;4.10;99.90;;;;;;6243983;23;20023;-76
2022/03/21 03:47:41;;;;;;;33.53;20.65;;;3.60;99.90;;;;;;6242864;23;20047;-80
2022/03/21 03:50:07;;;;;;;33.88;18.17;;;3.70;99.90;;;;;;6216283;23;20028;-79
2022/03/21 03:52:33;;;;;;;32.83;19.10;;;3.70;99.90;;;;;;6243632;23;20023;-78
2022/03/21 03:54:59;;;;;;;29.98;18.30;;;3.60;99.90;;;;;;6242996;23;20020;-79
2022/03/21 03:57:25;;;;;;;30.75;18.58;;;3.60;99.90;;;;;;6242920;23;20024;-78
2022/03/21 03:59:51;;;;;;;31.30;18.02;;;3.90;99.90;;;;;;6216295;23;20365;-78
2022/03/21 04:02:17;;;;;;;29.55;18.20;;;3.50;99.90;;;;;;6243046;23;20027;-78
2022/03/21 04:04:43;;;;;;;34.83;19.48;;;3.40;99.90;;;;;;6243291;23;20024;-78
2022/03/21 04:07:09;;;;;;;29.75;18.45;;;3.30;99.90;;;;;;6215795;23;20456;-78
2022/03/21 04:09:35;;;;;;;33.50;19.60;;;3.10;99.90;;;;;;6243081;23;20031;-79
2022/03/21 04:12:02;;;;;;;30.88;18.23;;;3.10;99.90;;;;;;6243534;23;20020;-78
2022/03/21 04:14:28;;;;;;;32.60;18.60;;;3.10;99.90;;;;;;6216010;23;20055;-78
2022/03/21 04:16:54;;;;;;;28.60;17.88;;;3.00;99.90;;;;;;6243002;23;20074;-78
2022/03/21 04:19:20;;;;;;;29.73;17.42;;;3.10;99.90;;;;;;6242572;23;20019;-78
2022/03/21 04:21:46;;;;;;;30.63;18.60;;;3.00;99.90;;;;;;6243108;23;20373;-78
2022/03/21 04:24:11;;;;;;;29.77;17.13;;;2.90;99.90;;;;;;6243073;23;20091;-78
2022/03/21 04:26:37;;;;;;;30.27;17.88;;;3.60;99.90;;;;;;6243058;23;20009;-78
2022/03/21 04:29:04;;;;;;;27.20;17.25;;;3.60;99.90;;;;;;6215886;23;20472;-78
2022/03/21 04:31:31;;;;;;;26.67;15.98;;;2.70;99.90;;;;;;6243298;23;20012;-78
2022/03/21 04:33:58;;;;;;;31.02;16.70;;;2.70;99.90;;;;;;6243218;23;20016;-77
2022/03/21 04:36:24;;;;;;;27.13;16.20;;;3.00;99.90;;;;;;6242801;23;20026;-78
2022/03/21 04:38:49;;;;;;;31.60;17.52;;;2.80;99.90;;;;;;6243021;23;20090;-78
2022/03/21 04:41:16;;;;;;;30.85;16.48;;;2.80;99.90;;;;;;6242880;23;20027;-78
2022/03/21 04:43:41;;;;;;;35.75;17.63;;;2.90;99.90;;;;;;6243225;23;20012;-78
2022/03/21 04:46:07;;;;;;;32.67;16.10;;;2.80;99.90;;;;;;6190898;23;20367;-78
2022/03/21 04:48:33;;;;;;;31.50;15.70;;;2.80;99.90;;;;;;6242674;23;20028;-77
2022/03/21 04:50:59;;;;;;;30.63;16.60;;;2.80;99.90;;;;;;6242666;23;20016;-78
2022/03/21 04:53:25;;;;;;;30.88;16.90;;;3.20;99.90;;;;;;6242458;23;20016;-78
2022/03/21 04:55:51;;;;;;;30.35;16.20;;;2.90;99.90;;;;;;6242730;23;20059;-78
2022/03/21 04:58:17;;;;;;;27.63;16.20;;;2.70;99.90;;;;;;6215526;23;20394;-79
2022/03/21 05:00:44;;;;;;;27.92;15.70;;;2.70;99.90;;;;;;6243101;23;20069;-78
2022/03/21 05:03:10;;;;;;;31.13;17.15;;;2.60;99.90;;;;;;6242840;23;20047;-77
2022/03/21 05:05:37;;;;;;;25.63;16.70;;;2.60;99.90;;;;;;6241516;23;20103;-78
2022/03/21 05:08:03;;;;;;;28.40;16.55;;;2.40;99.90;;;;;;6242671;23;20023;-78
2022/03/21 05:10:30;;;;;;;28.85;16.85;;;2.30;99.90;;;;;;6215522;23;20023;-79
2022/03/21 05:12:57;;;;;;;26.10;14.85;;;2.30;99.90;;;;;;6242362;23;20021;-78
2022/03/21 05:15:23;;;;;;;28.80;14.48;;;2.30;99.90;;;;;;6242756;23;20027;-78
2022/03/21 05:17:51;;;;;;;27.10;16.77;;;3.20;99.90;;;;;;6215277;23;20529;-78
2022/03/21 05:20:17;;;;;;;29.77;14.63;;;2.30;99.90;;;;;;6242370;23;20016;-78
2022/03/21 05:31:04;;;;;;;28.08;16.77;;;2.40;99.90;;;;;;6242728;23;20024;-78
2022/03/21 05:36:17;;;;;;;23.27;15.63;;;2.00;99.90;;;;;;6215097;23;20028;-78
2022/03/21 05:38:43;;;;;;;21.08;12.13;;;1.90;99.90;;;;;;6214791;23;20074;-77
2022/03/21 05:41:08;;;;;;;17.13;11.30;;;1.80;99.90;;;;;;6240473;23;20028;-78
2022/03/21 05:43:34;;;;;;;23.33;13.43;;;2.60;99.90;;;;;;6215205;23;20516;-77
2022/03/21 05:46:01;;;;;;;23.98;12.35;;;1.70;99.90;;;;;;6242167;23;20111;-78
2022/03/21 05:51:21;;;;;;;24.25;13.68;;;1.70;99.90;;;;;;6242429;23;20030;-80
2022/03/21 05:53:46;;;;;;;23.40;14.00;;;1.60;99.90;;;;;;6241844;23;20086;-78
2022/03/21 05:56:13;;;;;;;21.98;12.43;;;1.50;99.90;;;;;;6242620;23;20338;-78
2022/03/21 05:58:39;;;;;;;20.42;11.82;;;2.70;99.90;;;;;;6242262;23;20071;-78
2022/03/21 06:01:05;;;;;;;22.77;12.32;;;1.40;99.90;;;;;;6242260;23;20016;-77
2022/03/21 06:03:31;;;;;;;19.98;12.70;;;1.40;99.90;;;;;;6241811;23;20035;-77
2022/03/21 06:05:59;;;;;;;23.75;13.43;;;1.30;99.90;;;;;;6241806;23;20023;-77
2022/03/21 06:08:25;;;;;;;26.27;12.90;;;1.40;99.90;;;;;;6214253;23;20016;-77
2022/03/21 06:11:03;;;;;;;21.77;13.98;;;2.20;99.90;;;;;;6242217;23;20095;-78
2022/03/21 06:13:32;;;;;;;24.25;14.43;;;1.40;99.90;;;;;;6242079;23;20016;-77
2022/03/21 06:16:03;;;;;;;24.30;14.43;;;1.50;99.90;;;;;;6242347;23;20115;-79
2022/03/21 06:18:29;;;;;;;27.23;15.65;;;1.60;99.90;;;;;;6242090;23;20043;-78
2022/03/21 06:20:55;;;;;;;25.83;15.10;;;1.60;99.90;;;;;;6242121;23;20016;-77
2022/03/21 06:23:21;;;;;;;29.00;16.58;;;1.70;99.90;;;;;;6241646;23;20510;-78
2022/03/21 06:25:46;;;;;;;28.98;16.02;;;1.80;99.90;;;;;;6241747;23;20493;-78
2022/03/21 06:28:13;;;;;;;30.85;15.50;;;1.80;99.90;;;;;;6242497;23;20315;-79
2022/03/21 06:30:39;;;;;;;26.90;15.75;;;1.90;99.90;;;;;;6242074;23;20023;-77
2022/03/21 06:33:04;;;;;;;38.00;18.20;;;2.00;99.90;;;;;;6242073;23;20016;-78
2022/03/21 06:35:30;;;;;;;32.05;17.42;;;2.10;99.90;;;;;;6242174;23;20406;-79
2022/03/21 06:37:56;;;;;;;36.05;19.08;;;2.20;99.90;;;;;;6242086;23;20309;-78
2022/03/21 06:40:25;;;;;;;29.60;17.88;;;2.20;99.90;;;;;;6241730;23;20016;-78
2022/03/21 06:42:50;;;;;;;32.20;18.90;;;2.30;99.90;;;;;;6214590;23;20020;-78
2022/03/21 06:45:16;;;;;;;36.35;20.13;;;2.70;99.90;;;;;;6242299;23;20023;-78
2022/03/21 06:47:42;;;;;;;33.90;18.52;;;2.40;99.90;;;;;;6242620;23;20012;-80
2022/03/21 06:50:08;;;;;;;33.13;18.90;;;2.50;99.90;;;;;;6215297;23;20024;-80
2022/03/21 06:52:38;;;;;;;29.38;18.50;;;2.50;99.90;;;;;;6242244;23;20016;-78
2022/03/21 06:55:08;;;;;;;36.63;20.55;;;2.60;99.90;;;;;;6241486;23;20369;-78
2022/03/21 06:57:33;;;;;;;37.58;19.65;;;2.70;99.90;;;;;;6241849;23;20438;-78
2022/03/21 07:00:00;;;;;;;35.22;20.08;;;2.70;99.90;;;;;;6214966;23;20085;-79
2022/03/21 07:02:28;;;;;;;31.33;17.77;;;3.10;99.90;;;;;;6242225;23;20087;-79
2022/03/21 07:04:54;;;;;;;27.30;17.90;;;2.80;99.90;;;;;;6241676;23;20441;-79
2022/03/21 07:07:21;;;;;;;33.55;17.00;;;3.20;99.90;;;;;;6241889;23;20020;-79
2022/03/21 07:09:46;;;;;;;27.52;16.85;;;3.50;99.90;;;;;;6242071;23;20012;-78
2022/03/21 07:12:12;;;;;;;28.63;16.95;;;4.00;99.90;;;;;;6241692;23;20055;-78
2022/03/21 07:14:38;;;;;;;29.58;18.63;;;3.00;99.90;;;;;;6214500;23;20024;-79
2022/03/21 07:17:04;;;;;;;35.80;19.45;;;3.70;99.90;;;;;;6216676;23;20087;-81
2022/03/21 07:19:30;;;;;;;37.50;20.67;;;3.10;99.90;;;;;;6244238;23;20016;-78
2022/03/21 07:21:56;;;;;;;34.83;21.20;;;3.20;99.90;;;;;;6216997;23;20016;-79
2022/03/21 07:24:21;;;;;;;35.30;21.40;;;3.30;99.90;;;;;;6244027;23;20016;-78
2022/03/21 07:26:47;;;;;;;38.92;21.90;;;3.40;99.90;;;;;;6243258;23;20011;-80
2022/03/21 07:29:13;;;;;;;38.40;20.65;;;3.40;99.90;;;;;;6216309;23;20024;-79
2022/03/21 07:31:38;;;;;;;33.08;20.83;;;3.50;99.90;;;;;;6244009;23;20012;-77
2022/03/21 07:34:05;;;;;;;37.65;21.77;;;3.60;99.90;;;;;;6243424;23;20047;-78
2022/03/21 07:36:31;;;;;;;40.22;21.25;;;3.60;99.90;;;;;;6216743;23;20024;-79
2022/03/21 07:38:58;;;;;;;33.85;21.27;;;3.80;99.90;;;;;;6243628;23;20015;-78
2022/03/21 07:41:26;;;;;;;35.35;21.70;;;4.20;99.90;;;;;;6242974;23;20503;-78
2022/03/21 07:43:54;;;;;;;35.88;21.38;;;4.00;99.90;;;;;;6217495;23;20019;-77
2022/03/21 07:49:05;;;;;;;35.63;20.85;;;4.10;99.90;;;;;;6243766;23;20028;-78
2022/03/21 07:51:31;;;;;;;45.97;22.23;;;4.20;99.90;;;;;;6243834;23;20012;-78
2022/03/21 07:53:57;;;;;;;38.08;20.60;;;4.40;99.90;;;;;;6243783;23;20067;-78
2022/03/21 07:56:23;;;;;;;38.55;21.67;;;4.60;99.90;;;;;;6243375;23;20337;-79
2022/03/21 07:58:48;;;;;;;43.58;22.52;;;4.60;99.90;;;;;;6243736;23;20023;-84
2022/03/21 08:01:14;;;;;;;37.70;21.90;;;4.80;99.90;;;;;;6216310;23;20016;-77
2022/03/21 08:03:40;;;;;;;33.45;20.80;;;5.50;99.90;;;;;;6243326;23;20063;-76
2022/03/21 08:06:10;;;;;;;40.75;22.45;;;5.00;99.90;;;;;;6243859;23;20027;-78
2022/03/21 08:08:37;;;;;;;35.00;22.27;;;6.10;99.90;;;;;;6243523;23;20479;-78
2022/03/21 08:11:03;;;;;;;40.63;22.48;;;5.40;99.90;;;;;;6243707;23;20310;-80
2022/03/21 08:13:29;;;;;;;38.53;22.30;;;6.40;99.90;;;;;;6243981;23;20027;-78
2022/03/21 08:15:55;;;;;;;36.92;21.65;;;6.50;99.90;;;;;;6216019;23;20024;-77
2022/03/21 08:18:20;;;;;;;39.28;22.23;;;6.50;99.90;;;;;;6243753;23;20385;-81
2022/03/21 08:20:46;;;;;;;45.25;23.10;;;6.00;99.90;;;;;;6243737;23;20040;-80
2022/03/21 08:23:14;;;;;;;41.08;22.73;;;6.40;99.90;;;;;;6243501;23;20329;-82
2022/03/21 08:25:47;;;;;;;38.85;22.90;;;6.40;99.90;;;;;;6242817;23;20020;-82
2022/03/21 08:28:14;;;;;;;36.67;22.02;;;7.40;99.90;;;;;;6215099;23;20397;-81
2022/03/21 08:30:40;;;;;;;38.28;23.00;;;7.10;99.90;;;;;;6243432;23;20020;-82
2022/03/21 08:33:11;;;;;;;44.30;22.42;;;6.90;99.90;;;;;;6243427;23;20015;-81
2022/03/21 08:35:44;;;;;;;35.55;22.27;;;7.20;99.90;;;;;;6215776;23;20052;-83
2022/03/21 08:38:10;;;;;;;38.40;22.30;;;7.30;99.90;;;;;;6242674;23;20438;-83
2022/03/21 08:40:37;;;;;;;38.55;21.73;;;8.40;99.90;;;;;;6243250;23;20023;-82
2022/03/21 08:43:05;;;;;;;39.15;23.92;;;7.80;99.90;;;;;;6242666;23;20019;-82
2022/03/21 08:45:32;;;;;;;35.33;22.77;;;8.00;99.90;;;;;;6243045;23;20063;-81
2022/03/21 08:47:58;;;;;;;39.28;22.90;;;8.30;99.90;;;;;;6243250;23;20052;-82
2022/03/21 08:50:23;;;;;;;36.05;21.48;;;8.80;99.90;;;;;;6215464;23;20017;-82
2022/03/21 08:52:49;;;;;;;37.67;22.17;;;9.60;99.90;;;;;;6242770;23;20038;-83
2022/03/21 08:55:15;;;;;;;38.28;21.55;;;9.30;99.90;;;;;;6243233;23;20063;-83
2022/03/21 08:57:40;;;;;;;33.88;21.75;;;9.40;99.90;;;;;;6243179;23;20353;-83
2022/03/21 09:00:08;;;;;;;37.65;21.45;;;9.70;99.90;;;;;;6242591;23;20556;-83
2022/03/21 09:02:34;;;;;;;36.17;21.30;;;9.90;99.90;;;;;;6242793;23;20016;-82
2022/03/21 09:05:00;;;;;;;39.90;22.63;;;10.30;99.90;;;;;;6242744;23;20051;-79
2022/03/21 09:07:26;;;;;;;33.85;22.40;;;10.50;99.90;;;;;;6242618;23;20091;-82
2022/03/21 09:09:52;;;;;;;38.13;22.38;;;10.70;99.90;;;;;;6242918;23;20383;-81
2022/03/21 09:12:18;;;;;;;35.55;21.70;;;11.00;99.90;;;;;;6243087;23;20023;-79
2022/03/21 09:14:43;;;;;;;35.40;20.80;;;11.90;99.90;;;;;;6242309;23;20024;-81
2022/03/21 09:17:10;;;;;;;38.65;20.70;;;11.30;99.90;;;;;;6242368;23;20176;-80
2022/03/21 09:19:36;;;;;;;38.67;21.58;;;11.40;99.90;;;;;;6242371;23;20338;-81
2022/03/21 09:22:02;;;;;;;34.95;20.77;;;12.00;99.90;;;;;;6242314;23;20012;-80
2022/03/21 09:24:29;;;;;;;33.95;20.23;;;11.70;99.90;;;;;;6242418;23;20074;-79
2022/03/21 09:26:55;;;;;;;30.67;20.05;;;11.80;99.90;;;;;;6242116;23;20012;-83
2022/03/21 09:29:21;;;;;;;31.52;18.88;;;12.80;99.90;;;;;;6215486;23;20031;-86
2022/03/21 09:31:48;;;;;;;31.27;18.98;;;12.10;99.90;;;;;;6242452;23;20004;-82
2022/03/21 09:34:14;;;;;;;30.65;19.13;;;12.20;99.90;;;;;;6215084;23;20752;-82
2022/03/21 09:36:40;;;;;;;29.80;20.42;;;12.40;99.90;;;;;;6242458;23;20846;-81
2022/03/21 09:39:07;;;;;;;31.90;19.85;;;13.00;99.90;;;;;;6215285;23;20066;-83
2022/03/21 09:41:33;;;;;;;31.92;19.50;;;12.80;99.90;;;;;;6243054;23;20020;-81
2022/03/21 09:44:03;;;;;;;30.55;19.25;;;13.10;99.90;;;;;;6242710;23;20338;-83
2022/03/21 09:46:29;;;;;;;31.73;19.48;;;13.70;99.90;;;;;;6215332;23;20060;-82
2022/03/21 09:48:57;;;;;;;32.55;20.05;;;13.60;99.90;;;;;;6242060;23;20143;-83
2022/03/21 09:51:24;;;;;;;29.05;18.50;;;13.60;99.90;;;;;;6189004;23;20027;-83
2022/03/21 09:53:50;;;;;;;34.72;20.02;;;13.80;99.90;;;;;;6242849;23;20020;-82
2022/03/21 09:56:17;;;;;;;27.38;17.98;;;13.90;99.90;;;;;;6243002;23;20012;-84
2022/03/21 09:58:44;;;;;;;29.75;19.15;;;13.90;99.90;;;;;;6190471;23;20095;-84
2022/03/21 10:01:11;;;;;;;30.75;18.77;;;14.50;99.90;;;;;;6242153;23;20064;-82
2022/03/21 10:03:41;;;;;;;30.63;18.17;;;14.00;99.90;;;;;;6241874;23;20008;-84
2022/03/21 10:06:34;;;;;;;27.65;17.90;;;14.10;99.90;;;;;;6242009;23;20047;-82
2022/03/21 10:09:04;;;;;;;25.38;16.75;;;14.20;99.90;;;;;;6216262;23;20366;-83
2022/03/21 10:11:30;;;;;;;27.77;17.60;;;14.40;99.90;;;;;;6242656;23;20095;-83
2022/03/21 10:13:56;;;;;;;25.17;16.38;;;14.40;99.90;;;;;;6242394;23;20050;-80
2022/03/21 10:16:21;;;;;;;22.10;14.27;;;14.60;99.90;;;;;;6214729;23;20020;-81
2022/03/21 10:18:53;;;;;;;26.38;15.45;;;14.70;98.80;;;;;;6241592;23;20083;-83
2022/03/21 10:21:26;;;;;;;27.85;17.08;;;15.10;97.60;;;;;;6242054;23;20024;-84
2022/03/21 10:24:03;;;;;;;25.70;16.27;;;14.90;97.80;;;;;;6242116;23;20050;-83
2022/03/21 10:26:28;;;;;;;25.23;16.35;;;14.90;96.90;;;;;;6241757;23;20020;-82
2022/03/21 10:28:58;;;;;;;22.67;14.77;;;14.90;96.90;;;;;;6242172;23;20027;-83
2022/03/21 10:31:34;;;;;;;25.85;14.68;;;15.30;95.50;;;;;;6241841;23;20016;-81
2022/03/21 10:34:03;;;;;;;20.60;14.52;;;15.20;94.40;;;;;;6214258;23;20055;-83
2022/03/21 10:36:29;;;;;;;22.83;15.25;;;15.40;95.30;;;;;;6241826;23;20020;-81
2022/03/21 10:39:09;;;;;;;24.45;15.50;;;16.20;95.10;;;;;;6215056;23;20078;-81
2022/03/21 10:41:37;;;;;;;19.42;13.77;;;15.70;92.90;;;;;;6241303;23;20024;-82
2022/03/21 10:44:08;;;;;;;18.98;13.10;;;15.80;92.20;;;;;;6214553;23;20020;-84
2022/03/21 10:46:35;;;;;;;23.98;14.45;;;15.70;90.50;;;;;;6241498;23;20031;-82
2022/03/21 10:49:07;;;;;;;24.80;14.93;;;15.70;89.10;;;;;;6241268;23;20496;-83
2022/03/21 10:51:48;;;;;;;20.75;14.68;;;15.80;87.90;;;;;;6241827;23;20020;-83
2022/03/21 10:54:36;;;;;;;28.05;15.13;;;16.20;88.40;;;;;;6241924;23;20020;-80
2022/03/21 10:57:02;;;;;;;23.48;15.50;;;16.00;87.70;;;;;;6241640;23;20020;-81
2022/03/21 10:59:28;;;;;;;26.42;16.63;;;15.90;87.40;;;;;;6214265;23;20008;-81
2022/03/21 11:02:14;;;;;;;26.58;15.60;;;16.00;88.70;;;;;;6241666;23;20098;-77
2022/03/21 11:04:45;;;;;;;26.05;16.48;;;16.10;87.40;;;;;;6241240;23;20016;-83
2022/03/21 11:07:12;;;;;;;24.60;15.90;;;16.20;81.40;;;;;;6241991;23;20424;-84
2022/03/21 11:09:40;;;;;;;29.73;16.23;;;16.30;86.00;;;;;;6241681;23;20020;-83
2022/03/21 11:12:07;;;;;;;25.58;14.85;;;16.50;86.80;;;;;;6214436;23;20016;-84
2022/03/21 11:14:39;;;;;;;22.38;15.50;;;16.30;81.60;;;;;;6241628;23;20104;-77
2022/03/21 11:17:06;;;;;;;26.25;15.57;;;16.20;84.20;;;;;;6241428;23;20516;-83
2022/03/21 11:19:33;;;;;;;24.52;15.77;;;16.40;81.60;;;;;;6240991;23;20052;-82
2022/03/21 11:22:01;;;;;;;24.25;16.00;;;16.80;85.00;;;;;;6189306;23;20102;-83
2022/03/21 11:24:31;;;;;;;23.58;16.08;;;17.10;86.40;;;;;;6241390;23;20442;-82
2022/03/21 11:27:24;;;;;;;23.80;16.38;;;17.10;83.20;;;;;;6241459;23;20024;-83
2022/03/21 11:30:14;;;;;;;25.60;15.75;;;17.20;82.80;;;;;;6214985;23;20020;-82
2022/03/21 11:32:42;;;;;;;22.63;14.70;;;17.40;79.10;;;;;;6241822;23;20020;-82
2022/03/21 11:35:14;;;;;;;24.95;14.82;;;17.60;81.70;;;;;;6214420;23;20020;-83
2022/03/21 11:37:40;;;;;;;20.83;14.20;;;17.70;79.10;;;;;;6241939;23;20020;-83
2022/03/21 11:40:24;;;;;;;25.15;15.00;;;17.80;80.50;;;;;;6241279;23;20016;-83
2022/03/21 11:42:51;;;;;;;24.67;14.00;;;17.80;75.30;;;;;;6241956;23;20017;-83
2022/03/21 11:45:38;;;;;;;22.55;15.52;;;17.80;77.40;;;;;;6241917;23;20362;-81
2022/03/21 11:48:19;;;;;;;23.23;15.02;;;18.10;73.30;;;;;;6211339;23;20060;-81
2022/03/21 11:50:49;;;;;;;23.90;15.82;;;18.30;74.80;;;;;;6210591;23;20488;-80
2022/03/21 11:53:26;;;;;;;23.88;14.10;;;18.40;75.20;;;;;;6211519;23;20020;-80
2022/03/21 11:55:51;;;;;;;21.55;15.10;;;18.70;77.60;;;;;;6210929;23;20461;-83
2022/03/21 11:58:23;;;;;;;17.90;14.02;;;18.90;76.70;;;;;;6211448;23;20023;-82
2022/03/21 12:01:18;;;;;;;23.42;14.77;;;19.00;75.30;;;;;;6211660;23;20020;-83
2022/03/21 12:03:44;;;;;;;21.67;14.05;;;19.00;70.50;;;;;;6179762;23;20024;-83
2022/03/21 12:06:30;;;;;;;19.42;13.88;;;19.10;71.80;;;;;;6212456;23;20460;-83
2022/03/21 12:08:59;;;;;;;23.88;15.35;;;19.10;69.60;;;;;;6213017;23;20017;-82
2022/03/21 12:11:56;;;;;;;19.35;14.27;;;19.30;72.90;;;;;;6212756;23;20016;-84
2022/03/21 12:14:28;;;;;;;21.30;14.02;;;19.30;69.20;;;;;;6202933;23;20021;-83
2022/03/21 12:17:05;;;;;;;21.40;14.57;;;19.40;69.50;;;;;;6213152;23;20044;-82
2022/03/21 12:19:46;;;;;;;26.08;14.13;;;19.30;67.80;;;;;;6212880;23;20028;-83
2022/03/21 12:22:27;;;;;;;21.33;13.85;;;19.50;67.10;;;;;;6186044;23;20020;-83
2022/03/21 12:24:53;;;;;;;21.42;14.23;;;19.50;68.70;;;;;;6213341;23;20017;-83
2022/03/21 12:28:01;;;;;;;25.25;13.38;;;19.80;68.80;;;;;;6212202;23;20524;-83
2022/03/21 12:30:27;;;;;;;19.45;13.73;;;19.90;66.70;;;;;;6120053;23;20074;-83
2022/03/21 12:33:10;;;;;;;21.88;13.65;;;20.00;68.00;;;;;;6120160;23;20030;-84
2022/03/21 12:35:39;;;;;;;19.60;13.13;;;20.10;67.90;;;;;;6120014;23;20021;-78
2022/03/21 12:38:09;;;;;;;25.23;15.45;;;20.00;66.00;;;;;;6119591;23;20029;-78
2022/03/21 12:40:46;;;;;;;19.65;14.40;;;20.10;66.20;;;;;;6120237;23;20057;-77
2022/03/21 12:43:14;;;;;;;20.75;13.95;;;20.10;66.10;;;;;;6120246;23;20018;-79
2022/03/21 12:45:43;;;;;;;20.58;13.63;;;20.20;65.10;;;;;;6120171;23;20046;-78
2022/03/21 12:48:11;;;;;;;22.33;14.80;;;20.00;63.60;;;;;;6149286;23;20551;-79
2022/03/21 12:50:38;;;;;;;21.33;13.88;;;20.10;65.20;;;;;;6149706;23;20017;-78
2022/03/21 12:53:07;;;;;;;23.58;14.45;;;20.30;65.70;;;;;;6125200;23;20057;-78
2022/03/21 12:55:33;;;;;;;20.63;13.15;;;20.40;63.90;;;;;;6149869;23;20021;-79
2022/03/21 12:58:11;;;;;;;20.52;13.63;;;20.70;63.10;;;;;;6149516;23;20025;-78